»·PEaware :: N808MR KINW-KPHX

N808MR :: KINW-KPHX

FLIGHT INFORMATION

Flight Status: Arrived
Operator: Privately registered:
United States
More flights under this callsign
Pilot: Ryan L. (28399)
Aircraft: CESSNA 510 CITATION MUSTANG
(C510)
More flights by this aircraft type
Origin: KINW Winslow-Lindbergh Regl
United States
Destination: KPHX Phoenix Sky Harbor Intl
United States
More flights between these airports :: More routes between these airports
Route: +PAYSO EAGUL6
File this flight plan on PilotEdge
Remarks:
Altitude:
(Current/Filed)
18,000ft
Speed:
(Current/Filed)
330kts
Departed: 06-Oct-20 01:32 PM
Arrived: 06-Oct-20 02:19 PM
Distance/Time
Traveled:
115nm/0:47
Distance/Time
To Go:
Arrived

Flight Plot

Page will automatically refresh every two minutes.

Flight plan parsing failed; only flown route is shown


Map Options




Map Legend


Flown Route
Filed Route
Departure Airport
Arrival Airport
Navaid (VOR, NDB)
Fix

Horizontal Profiles

Position Reports

Time Latitude Longitude Heading Altitude Ground
Speed
06-Oct-20 13:30 35.016896 -110.732691 58 4944ft 79kts
06-Oct-20 13:31 35.039076 -110.685205 60 6084ft 204kts
06-Oct-20 13:32 35.071317 -110.615119 60 8208ft 264kts
06-Oct-20 13:33 35.109208 -110.532375 59 10373ft 289kts
06-Oct-20 13:34 35.148834 -110.445489 59 12606ft 298kts
06-Oct-20 13:35 35.189948 -110.355147 59 14643ft 306kts
06-Oct-20 13:36 35.161037 -110.273190 170 16386ft 322kts
06-Oct-20 13:37 35.108888 -110.342816 282 17527ft 330kts
06-Oct-20 13:38 35.129626 -110.449546 283 17529ft 319kts
06-Oct-20 13:39 35.117542 -110.557898 255 17529ft 327kts
06-Oct-20 13:40 35.092329 -110.666099 254 17528ft 330kts
06-Oct-20 13:41 35.065681 -110.773534 242 17507ft 332kts
06-Oct-20 13:42 35.018716 -110.865983 254 17530ft 330kts
06-Oct-20 13:43 34.947700 -110.909982 162 18354ft 336kts
06-Oct-20 13:44 34.854349 -110.893411 170 19670ft 344kts
06-Oct-20 13:45 34.756518 -110.874101 170 20144ft 367kts
06-Oct-20 13:46 34.653760 -110.853814 170 20390ft 370kts
06-Oct-20 13:47 34.552235 -110.833805 170 20296ft 379kts
06-Oct-20 13:48 34.446511 -110.813029 170 20297ft 388kts
06-Oct-20 13:49 34.342265 -110.811876 212 20245ft 374kts
06-Oct-20 13:50 34.282427 -110.907570 226 19142ft 360kts
06-Oct-20 13:51 34.212403 -110.990609 223 18272ft 333kts
06-Oct-20 13:52 34.144246 -111.068639 222 18287ft 347kts
06-Oct-20 13:53 34.076811 -111.153383 226 17879ft 339kts
06-Oct-20 13:54 34.014182 -111.233616 226 17358ft 330kts
06-Oct-20 13:55 33.951177 -111.314196 226 17016ft 325kts
06-Oct-20 13:56 33.889160 -111.393362 226 16983ft 324kts
06-Oct-20 13:57 33.838739 -111.484055 237 15804ft 305kts
06-Oct-20 13:58 33.795835 -111.565710 236 14393ft 289kts
06-Oct-20 13:59 33.752392 -111.647300 236 11897ft 286kts
06-Oct-20 14:00 33.709968 -111.726827 236 11079ft 272kts
06-Oct-20 14:01 33.670313 -111.801559 236 10265ft 252kts
06-Oct-20 14:02 33.633152 -111.871480 236 10090ft 251kts
06-Oct-20 14:03 33.595556 -111.942096 236 8365ft 248kts
06-Oct-20 14:04 33.558990 -112.010621 236 7080ft 242kts
06-Oct-20 14:05 33.525514 -112.080880 265 7056ft 244kts
06-Oct-20 14:06 33.524908 -112.161508 268 6568ft 245kts
06-Oct-20 14:07 33.523265 -112.239391 268 4554ft 231kts
06-Oct-20 14:08 33.521887 -112.315989 268 4069ft 228kts
06-Oct-20 14:09 33.520823 -112.392068 268 4063ft 228kts
06-Oct-20 14:11 33.513306 -112.466331 222 4049ft 225kts
06-Oct-20 14:12 33.475289 -112.433970 100 4063ft 221kts
06-Oct-20 14:13 33.464211 -112.359740 100 4063ft 230kts
06-Oct-20 14:14 33.453125 -112.285755 100 4065ft 224kts
06-Oct-20 14:15 33.425659 -112.217802 90 3226ft 228kts
06-Oct-20 14:16 33.428826 -112.143190 89 3024ft 220kts
06-Oct-20 14:17 33.428868 -112.080882 89 2041ft 140kts
06-Oct-20 14:18 33.428943 -112.040291 89 1363ft 117kts
06-Oct-20 14:19 33.427984 -112.016633 204 1137ft 10kts
06-Oct-20 14:20 33.426480 -112.021162 173 1137ft 12kts
06-Oct-20 14:21 33.425811 -112.020528 66 1137ft 0kts
06-Oct-20 14:22 33.425811 -112.020528 66 1137ft 0kts
06-Oct-20 14:23 33.425811 -112.020528 66 1137ft 0kts
06-Oct-20 14:24 33.425811 -112.020528 66 1137ft 0kts
06-Oct-20 14:25 33.425811 -112.020528 66 1137ft 0kts
06-Oct-20 14:26 33.425811 -112.020528 66 1137ft 0kts
06-Oct-20 14:26 33.425811 -112.020528 66 1137ft 0kts
06-Oct-20 14:28 33.425811 -112.020528 66 1137ft 0kts
06-Oct-20 14:29 33.425811 -112.020528 66 1137ft 0kts
06-Oct-20 14:29 33.425811 -112.020528 66 1137ft 0kts
06-Oct-20 14:31 33.425811 -112.020528 66 1137ft 0kts
06-Oct-20 14:31 33.425811 -112.020528 66 1137ft 0kts
06-Oct-20 14:32 33.425811 -112.020528 66 1137ft 0kts
06-Oct-20 14:33 33.425811 -112.020528 66 1137ft 0kts

Navigation Log

Ident Type
Flight plan parsing failed, navigation log unavailable